Time;durP1;ratioP1;P1;durP2;ratioP2;P2;SDS_P1;SDS_P2;PMS_P1;PMS_P2;Temp;Humidity;BMP_temperature;BMP_pressure;BME280_temperature;BME280_humidity;BME280_pressure;Samples;Min_cycle;Max_cycle;Signal;HPM_P1;HPM_P2
2023/07/26 00:01:28;;;;;;;20.85;10.63;;;26.70;92.90;;;;;;4963961;28;20083;-81
2023/07/26 00:03:58;;;;;;;23.38;10.10;;;26.60;93.30;;;;;;4938851;29;20051;-79
2023/07/26 00:06:30;;;;;;;25.23;11.18;;;26.60;93.20;;;;;;4923739;29;20134;-81
2023/07/26 00:08:58;;;;;;;25.77;10.43;;;26.60;92.20;;;;;;4958145;28;20050;-80
2023/07/26 00:11:27;;;;;;;24.23;10.77;;;26.50;92.50;;;;;;4951522;29;20059;-83
2023/07/26 00:13:54;;;;;;;21.85;10.02;;;26.40;92.70;;;;;;4956355;28;20056;-80
2023/07/26 00:16:21;;;;;;;21.17;9.48;;;26.40;92.60;;;;;;4927110;28;20059;-80
2023/07/26 00:18:49;;;;;;;20.58;9.50;;;26.30;92.10;;;;;;4941648;29;20491;-79
2023/07/26 00:21:17;;;;;;;18.35;10.10;;;26.20;92.70;;;;;;4940673;29;20515;-81
2023/07/26 00:23:45;;;;;;;23.33;10.07;;;26.20;93.10;;;;;;4926492;29;20051;-82
2023/07/26 00:26:12;;;;;;;17.15;10.18;;;26.20;92.60;;;;;;4940573;28;20444;-80
2023/07/26 00:28:39;;;;;;;22.33;10.27;;;26.20;93.30;;;;;;4944466;28;20043;-79
2023/07/26 00:31:07;;;;;;;24.58;10.32;;;26.10;93.00;;;;;;4937314;29;20107;-81
2023/07/26 00:33:40;;;;;;;21.35;9.27;;;26.10;93.60;;;;;;4947452;28;20761;-82
2023/07/26 00:36:09;;;;;;;22.98;11.63;;;26.00;92.90;;;;;;4945312;28;20049;-79
2023/07/26 00:38:36;;;;;;;20.73;9.30;;;26.10;93.90;;;;;;4965462;28;20043;-79
2023/07/26 00:41:05;;;;;;;20.52;10.98;;;26.20;94.10;;;;;;4929055;28;20384;-79
2023/07/26 00:43:33;;;;;;;24.05;10.07;;;26.10;93.60;;;;;;4950653;28;20055;-81
2023/07/26 00:46:01;;;;;;;22.13;10.45;;;26.20;93.70;;;;;;4922841;29;20489;-81
2023/07/26 00:48:28;;;;;;;23.00;9.65;;;26.20;93.80;;;;;;4950014;28;20046;-82
2023/07/26 00:50:56;;;;;;;17.83;9.75;;;26.20;94.20;;;;;;4882602;29;1190596;-82
2023/07/26 00:53:24;;;;;;;22.10;9.65;;;26.10;93.90;;;;;;4941020;29;20058;-82
2023/07/26 00:55:53;;;;;;;20.35;9.55;;;26.10;94.00;;;;;;4938484;29;20115;-79
2023/07/26 00:58:22;;;;;;;20.38;8.70;;;26.20;94.60;;;;;;4941445;29;20102;-78
2023/07/26 01:00:50;;;;;;;21.10;8.00;;;26.30;94.20;;;;;;4954621;28;20435;-79
2023/07/26 01:03:20;;;;;;;15.52;8.18;;;26.40;94.30;;;;;;4923156;29;20066;-78
2023/07/26 01:06:20;;;;;;;14.60;8.57;;;26.40;94.20;;;;;;4942814;28;20040;-78
2023/07/26 01:08:51;;;;;;;;;;;26.50;94.10;;;;;;4934819;29;20051;-85
2023/07/26 01:12:06;;;;;;;15.27;7.90;;;26.50;94.60;;;;;;4939587;29;19910;-79
2023/07/26 01:14:56;;;;;;;15.10;7.65;;;26.50;94.60;;;;;;4957271;29;20051;-77
2023/07/26 01:17:23;;;;;;;13.35;7.22;;;26.40;94.60;;;;;;4950016;28;20079;-77
2023/07/26 01:19:50;;;;;;;14.30;6.88;;;26.40;95.20;;;;;;4938970;29;20058;-78
2023/07/26 01:22:18;;;;;;;11.75;6.88;;;26.30;95.10;;;;;;4965766;28;20059;-81
2023/07/26 01:24:45;;;;;;;17.40;7.13;;;26.20;95.50;;;;;;4949994;29;20039;-80
2023/07/26 01:27:13;;;;;;;14.57;7.65;;;26.30;95.40;;;;;;4948736;28;20065;-80
2023/07/26 01:29:40;;;;;;;18.52;8.00;;;26.30;95.40;;;;;;4971493;28;20043;-79
2023/07/26 01:32:10;;;;;;;16.08;8.13;;;26.10;96.10;;;;;;4960955;28;20078;-79
2023/07/26 01:34:38;;;;;;;17.98;7.65;;;26.20;96.20;;;;;;4946159;28;20406;-81
2023/07/26 01:37:06;;;;;;;13.68;6.70;;;26.30;96.40;;;;;;4940853;29;20122;-81
2023/07/26 01:39:34;;;;;;;17.43;6.93;;;26.00;96.50;;;;;;4940425;29;20047;-79
2023/07/26 01:42:02;;;;;;;12.57;7.05;;;25.90;97.30;;;;;;4939218;29;20305;-80
2023/07/26 01:44:36;;;;;;;15.30;7.38;;;26.00;97.20;;;;;;4956980;28;20055;-79
2023/07/26 01:47:04;;;;;;;13.00;7.22;;;26.20;97.30;;;;;;4928514;29;20057;-78
2023/07/26 01:49:31;;;;;;;17.25;7.13;;;26.20;97.20;;;;;;4939035;29;20134;-77
2023/07/26 01:51:59;;;;;;;14.88;7.22;;;26.10;97.40;;;;;;4938933;29;20466;-79
2023/07/26 01:54:26;;;;;;;16.63;7.55;;;26.20;97.60;;;;;;4943137;29;20046;-78
2023/07/26 01:56:53;;;;;;;13.88;6.85;;;26.20;97.60;;;;;;4941086;28;20051;-79
2023/07/26 01:59:23;;;;;;;;;;;26.10;97.90;;;;;;4952267;28;20106;-83
2023/07/26 02:01:51;;;;;;;12.32;6.35;;;26.10;97.60;;;;;;4957237;28;19977;-79
2023/07/26 02:04:24;;;;;;;16.13;7.55;;;26.10;97.90;;;;;;4937893;29;20515;-78
2023/07/26 02:06:52;;;;;;;14.75;6.80;;;26.20;97.90;;;;;;4954223;28;20065;-79
2023/07/26 02:09:19;;;;;;;16.48;7.60;;;26.10;97.70;;;;;;4954599;28;20052;-79
2023/07/26 02:11:47;;;;;;;14.25;6.55;;;26.10;97.80;;;;;;4937381;29;20142;-78
2023/07/26 02:14:18;;;;;;;14.27;7.70;;;26.10;98.00;;;;;;4939010;29;20050;-79
2023/07/26 02:16:46;;;;;;;13.10;6.50;;;26.10;97.80;;;;;;4951217;28;20494;-79
2023/07/26 02:19:15;;;;;;;15.95;7.05;;;26.10;98.00;;;;;;4963936;28;20047;-81
2023/07/26 02:21:45;;;;;;;18.15;8.13;;;26.10;98.10;;;;;;4919671;29;20054;-80
2023/07/26 02:24:12;;;;;;;17.20;7.20;;;26.10;98.30;;;;;;4942663;28;20165;-79
2023/07/26 02:26:40;;;;;;;12.10;7.25;;;26.10;98.30;;;;;;4921225;29;20043;-79
2023/07/26 02:29:07;;;;;;;12.57;7.18;;;26.10;98.50;;;;;;4929563;28;20059;-79
2023/07/26 02:31:34;;;;;;;19.40;7.18;;;26.10;98.50;;;;;;4961857;28;20051;-78
2023/07/26 02:34:02;;;;;;;14.27;7.32;;;26.00;98.70;;;;;;4921091;29;20569;-82
2023/07/26 02:36:29;;;;;;;15.80;8.60;;;26.00;98.70;;;;;;4933462;29;20052;-81
2023/07/26 02:38:57;;;;;;;17.63;8.00;;;26.00;98.70;;;;;;4954058;28;20447;-80
2023/07/26 02:41:24;;;;;;;12.13;6.55;;;26.00;99.20;;;;;;4930729;28;20055;-80
2023/07/26 02:43:55;;;;;;;17.77;7.22;;;26.00;99.20;;;;;;4941909;29;20503;-78
2023/07/26 02:46:23;;;;;;;15.27;6.93;;;26.00;99.30;;;;;;4953080;28;20118;-80
2023/07/26 02:48:50;;;;;;;14.27;6.63;;;26.00;99.40;;;;;;4953321;28;20051;-80
2023/07/26 02:51:18;;;;;;;17.08;7.35;;;26.00;99.00;;;;;;4956418;28;20094;-79
2023/07/26 02:53:46;;;;;;;21.77;9.05;;;26.10;96.90;;;;;;4929572;28;20126;-83
2023/07/26 02:56:15;;;;;;;14.05;6.97;;;26.20;97.90;;;;;;4947898;29;20050;-83
2023/07/26 02:58:43;;;;;;;14.55;6.60;;;26.10;98.40;;;;;;4937619;28;20162;-80
2023/07/26 03:01:10;;;;;;;11.93;7.55;;;26.10;98.50;;;;;;4964718;28;20051;-80
2023/07/26 03:03:38;;;;;;;15.45;7.65;;;26.10;98.90;;;;;;4938485;29;20102;-80
2023/07/26 03:06:05;;;;;;;16.30;7.43;;;26.00;98.70;;;;;;4952812;28;20051;-81
2023/07/26 03:08:33;;;;;;;15.05;7.35;;;26.00;98.60;;;;;;4923257;29;20507;-83
2023/07/26 03:11:00;;;;;;;15.73;7.13;;;26.00;98.60;;;;;;4936132;28;20133;-82
2023/07/26 03:13:28;;;;;;;17.42;7.88;;;26.00;98.60;;;;;;4926013;28;20486;-83
2023/07/26 03:15:55;;;;;;;15.07;7.07;;;26.00;98.60;;;;;;4924672;29;20142;-80
2023/07/26 03:18:23;;;;;;;15.10;7.15;;;26.00;98.80;;;;;;4944499;29;20055;-79
2023/07/26 03:21:07;;;;;;;14.75;7.18;;;26.10;99.10;;;;;;4948876;28;20514;-82
2023/07/26 03:23:34;;;;;;;14.60;6.82;;;25.90;99.00;;;;;;4942834;28;20102;-82
2023/07/26 03:26:02;;;;;;;12.52;6.68;;;25.90;99.60;;;;;;4938511;29;20043;-84
2023/07/26 03:28:29;;;;;;;19.88;8.48;;;25.90;99.20;;;;;;4943228;28;20470;-83
2023/07/26 03:30:57;;;;;;;13.32;7.03;;;25.90;99.00;;;;;;4943103;29;20070;-83
2023/07/26 03:33:25;;;;;;;15.50;6.53;;;26.00;99.50;;;;;;4959238;28;20051;-82
2023/07/26 03:35:53;;;;;;;15.32;7.07;;;25.80;99.70;;;;;;4925156;29;20463;-84
2023/07/26 03:38:20;;;;;;;14.02;6.93;;;25.60;99.90;;;;;;4941382;29;20074;-83
2023/07/26 03:40:47;;;;;;;12.02;6.95;;;25.30;99.90;;;;;;4960368;28;20090;-81
2023/07/26 03:43:15;;;;;;;13.95;6.75;;;25.00;99.90;;;;;;4945345;29;20052;-82
2023/07/26 03:45:42;;;;;;;14.85;7.15;;;25.00;99.90;;;;;;4927569;28;20407;-82
2023/07/26 03:48:10;;;;;;;15.77;7.63;;;25.40;99.90;;;;;;4939160;29;20051;-82
2023/07/26 03:50:37;;;;;;;12.73;7.78;;;25.60;99.90;;;;;;4926388;29;20078;-79
2023/07/26 03:53:06;;;;;;;17.35;7.28;;;25.50;99.90;;;;;;4956500;28;20082;-82
2023/07/26 03:55:33;;;;;;;17.35;7.55;;;25.70;99.90;;;;;;4936495;29;20149;-82
2023/07/26 03:58:00;;;;;;;18.50;7.35;;;25.80;99.90;;;;;;4957340;28;20475;-82
2023/07/26 04:00:30;;;;;;;19.45;7.10;;;25.50;99.90;;;;;;4957464;28;20091;-82
2023/07/26 04:02:57;;;;;;;15.85;8.02;;;25.40;99.90;;;;;;4924000;29;20158;-81
2023/07/26 04:05:30;;;;;;;15.00;7.82;;;25.00;99.90;;;;;;4931351;29;20071;-82
2023/07/26 04:07:58;;;;;;;15.88;7.57;;;24.60;99.90;;;;;;4956340;28;20051;-82
2023/07/26 04:10:26;;;;;;;15.18;7.18;;;24.40;99.90;;;;;;4955593;28;20550;-82
2023/07/26 04:12:54;;;;;;;14.98;7.40;;;24.40;99.90;;;;;;4953305;29;20101;-82
2023/07/26 04:15:21;;;;;;;15.90;7.65;;;24.30;99.90;;;;;;4943615;28;20122;-82
2023/07/26 04:17:49;;;;;;;17.70;7.05;;;24.30;99.90;;;;;;4945551;29;20121;-86
2023/07/26 04:20:17;;;;;;;14.10;7.63;;;24.30;99.90;;;;;;4941515;29;20089;-83
2023/07/26 04:22:44;;;;;;;14.18;7.65;;;24.60;99.90;;;;;;4926842;29;20051;-83
2023/07/26 04:25:12;;;;;;;12.15;7.05;;;25.10;99.90;;;;;;4924103;28;20065;-82
2023/07/26 04:27:39;;;;;;;15.40;7.18;;;25.30;99.90;;;;;;4936959;29;20487;-82
2023/07/26 04:30:07;;;;;;;11.10;6.53;;;24.70;99.90;;;;;;4957444;28;20053;-83
2023/07/26 04:32:34;;;;;;;18.50;8.10;;;24.90;99.90;;;;;;4959900;28;20047;-82
2023/07/26 04:35:03;;;;;;;19.85;7.28;;;25.20;99.90;;;;;;4958789;28;20059;-80
2023/07/26 04:37:30;;;;;;;15.00;7.45;;;25.20;99.90;;;;;;4944113;28;20051;-81
2023/07/26 04:39:58;;;;;;;21.63;8.02;;;25.50;99.90;;;;;;4948834;28;20533;-83
2023/07/26 04:42:25;;;;;;;21.83;8.27;;;25.50;99.90;;;;;;4955457;28;20471;-79
2023/07/26 04:44:52;;;;;;;15.52;7.40;;;25.60;99.90;;;;;;4935245;28;20105;-82
2023/07/26 04:47:22;;;;;;;15.13;7.25;;;25.60;99.90;;;;;;4930351;28;20059;-82
2023/07/26 04:49:49;;;;;;;18.90;7.68;;;25.60;99.90;;;;;;4936408;29;20472;-80
2023/07/26 04:52:17;;;;;;;18.08;7.05;;;25.70;99.90;;;;;;4952717;28;20086;-80
2023/07/26 04:54:45;;;;;;;41.25;26.77;;;25.70;99.90;;;;;;4952885;28;20047;-80
2023/07/26 04:57:12;;;;;;;20.50;7.85;;;25.80;99.90;;;;;;4930825;29;20043;-81
2023/07/26 04:59:39;;;;;;;13.40;7.40;;;25.80;99.90;;;;;;4941240;28;20047;-82
2023/07/26 05:02:09;;;;;;;23.08;7.72;;;25.60;99.90;;;;;;4950076;28;20123;-80
2023/07/26 05:04:40;;;;;;;18.67;7.30;;;25.10;99.90;;;;;;4956825;28;20145;-83
2023/07/26 05:07:08;;;;;;;16.58;8.48;;;25.40;99.90;;;;;;4951810;28;20051;-82
2023/07/26 05:09:35;;;;;;;14.93;7.85;;;25.30;99.90;;;;;;4942420;28;20047;-82
2023/07/26 05:12:03;;;;;;;17.70;8.15;;;25.60;99.90;;;;;;4926482;29;20094;-81
2023/07/26 05:14:31;;;;;;;21.77;8.75;;;25.80;99.90;;;;;;4957211;28;20192;-81
2023/07/26 05:17:02;;;;;;;21.50;9.20;;;25.50;99.90;;;;;;4940937;29;20057;-82
2023/07/26 05:19:30;;;;;;;25.02;10.02;;;25.70;99.90;;;;;;4923186;29;20060;-81
2023/07/26 05:21:57;;;;;;;30.58;14.32;;;25.90;99.90;;;;;;4953676;29;20443;-80
2023/07/26 05:24:24;;;;;;;27.48;13.60;;;25.50;99.90;;;;;;4959082;28;20051;-83
2023/07/26 05:26:52;;;;;;;23.38;10.68;;;25.60;99.90;;;;;;4925608;28;20638;-85
2023/07/26 05:29:19;;;;;;;23.88;11.70;;;25.80;99.90;;;;;;4940387;29;20384;-80
2023/07/26 05:31:46;;;;;;;18.83;10.00;;;26.10;99.90;;;;;;4942445;29;20070;-80
2023/07/26 05:34:15;;;;;;;17.40;9.32;;;26.20;99.90;;;;;;4921644;28;20495;-78
2023/07/26 05:36:42;;;;;;;20.02;9.05;;;26.10;99.90;;;;;;4938079;28;20071;-79
2023/07/26 05:39:10;;;;;;;35.53;21.27;;;26.20;99.90;;;;;;4971112;28;20054;-78
2023/07/26 05:41:37;;;;;;;76.78;50.13;;;26.20;99.90;;;;;;4932849;28;20055;-78
2023/07/26 05:44:05;;;;;;;28.73;16.15;;;26.20;99.90;;;;;;4940079;28;20053;-80
2023/07/26 05:46:32;;;;;;;20.73;11.00;;;26.10;99.90;;;;;;4921328;29;20134;-79
2023/07/26 05:48:59;;;;;;;20.58;9.57;;;26.30;99.90;;;;;;4938053;28;20071;-77
2023/07/26 05:51:27;;;;;;;22.15;10.23;;;26.40;99.90;;;;;;4942725;28;20051;-76
2023/07/26 05:53:54;;;;;;;20.33;9.60;;;26.50;99.90;;;;;;4938935;29;20130;-75
2023/07/26 05:56:21;;;;;;;19.75;10.57;;;26.50;99.90;;;;;;4953670;28;20073;-76
2023/07/26 05:58:48;;;;;;;17.90;9.73;;;26.50;99.90;;;;;;4954577;28;20065;-74
2023/07/26 06:01:18;;;;;;;18.55;10.00;;;26.60;99.90;;;;;;4953880;28;20507;-77
2023/07/26 06:03:46;;;;;;;23.67;10.50;;;26.60;99.90;;;;;;4921431;29;20047;-76
2023/07/26 06:06:13;;;;;;;19.05;9.75;;;26.70;99.90;;;;;;4955545;28;20050;-76
2023/07/26 06:08:40;;;;;;;23.00;9.82;;;26.60;99.90;;;;;;4966413;28;20059;-80
2023/07/26 06:11:08;;;;;;;24.05;10.20;;;26.70;99.90;;;;;;4956092;28;20102;-78
2023/07/26 06:13:35;;;;;;;21.13;9.27;;;26.80;99.90;;;;;;4961467;28;20081;-78
2023/07/26 06:16:03;;;;;;;24.73;10.48;;;26.90;99.90;;;;;;4957105;28;20062;-77
2023/07/26 06:18:30;;;;;;;19.70;9.85;;;26.90;99.90;;;;;;4953171;28;20051;-78
2023/07/26 06:20:57;;;;;;;28.40;11.70;;;26.90;99.90;;;;;;4954601;28;20119;-78
2023/07/26 06:23:24;;;;;;;20.75;9.90;;;27.00;99.90;;;;;;4929179;29;20071;-78
2023/07/26 06:25:52;;;;;;;22.00;9.98;;;26.90;99.90;;;;;;4966573;28;20082;-78
2023/07/26 06:28:19;;;;;;;21.17;9.82;;;26.80;99.90;;;;;;4927493;29;20057;-78
2023/07/26 06:30:47;;;;;;;15.93;8.80;;;26.90;99.90;;;;;;4958135;28;20050;-77
2023/07/26 06:33:15;;;;;;;17.30;8.73;;;26.80;99.90;;;;;;4959343;29;20047;-76
2023/07/26 06:35:42;;;;;;;15.63;7.97;;;26.90;99.90;;;;;;4970981;28;20328;-78
2023/07/26 06:38:09;;;;;;;17.55;9.52;;;27.10;99.90;;;;;;4950867;28;20051;-78
2023/07/26 06:40:37;;;;;;;17.80;9.07;;;27.10;99.90;;;;;;4954854;28;20162;-80
2023/07/26 06:43:06;;;;;;;20.05;8.43;;;27.10;99.90;;;;;;4955116;28;20062;-78
2023/07/26 06:45:33;;;;;;;14.73;8.02;;;27.20;99.90;;;;;;4939553;28;20052;-77
2023/07/26 06:48:01;;;;;;;15.95;9.18;;;27.30;99.90;;;;;;4959273;28;20530;-78
2023/07/26 06:50:29;;;;;;;16.92;8.77;;;27.40;99.90;;;;;;4949727;28;20051;-77
2023/07/26 06:52:59;;;;;;;16.95;8.55;;;27.40;99.90;;;;;;4957060;28;20510;-79
2023/07/26 06:55:27;;;;;;;17.33;9.18;;;27.40;99.90;;;;;;4945868;29;20043;-79
2023/07/26 06:57:55;;;;;;;16.90;8.35;;;27.50;99.90;;;;;;4940051;29;20495;-79
2023/07/26 07:00:24;;;;;;;17.67;9.63;;;27.50;99.90;;;;;;4947040;29;20499;-78
2023/07/26 07:03:00;;;;;;;15.82;9.68;;;27.50;99.90;;;;;;4930255;29;20055;-78
2023/07/26 07:05:33;;;;;;;18.75;8.93;;;27.60;99.90;;;;;;4959982;28;20050;-79
2023/07/26 07:08:00;;;;;;;16.48;8.40;;;27.60;99.90;;;;;;4940846;29;20088;-78
2023/07/26 07:10:28;;;;;;;19.70;10.15;;;27.70;99.90;;;;;;4958244;28;20074;-79
2023/07/26 07:12:55;;;;;;;18.17;10.18;;;27.70;99.90;;;;;;4960009;28;20126;-78
2023/07/26 07:15:23;;;;;;;18.42;10.65;;;27.80;99.80;;;;;;4941742;29;20055;-78
2023/07/26 07:17:50;;;;;;;20.85;8.40;;;27.90;99.90;;;;;;4961565;28;20065;-79
2023/07/26 07:20:37;;;;;;;14.65;7.50;;;28.00;99.10;;;;;;4942059;29;20065;-78
2023/07/26 07:23:06;;;;;;;17.05;7.95;;;28.10;99.20;;;;;;4959274;28;20131;-84
2023/07/26 07:25:36;;;;;;;14.35;7.22;;;28.10;98.80;;;;;;4942353;28;20052;-78
2023/07/26 07:28:05;;;;;;;17.23;7.93;;;28.10;99.10;;;;;;4958389;29;20534;-78
2023/07/26 07:30:33;;;;;;;14.73;7.55;;;28.10;99.90;;;;;;4941204;28;20058;-80
2023/07/26 07:33:00;;;;;;;18.98;7.53;;;28.10;98.80;;;;;;4958985;28;20048;-80
2023/07/26 07:35:28;;;;;;;15.07;7.70;;;28.30;99.30;;;;;;4957425;29;20402;-80
2023/07/26 07:37:55;;;;;;;13.70;7.68;;;28.30;98.60;;;;;;4944322;28;20059;-84
2023/07/26 07:40:23;;;;;;;15.82;6.93;;;28.40;99.90;;;;;;4932813;29;20050;-85
2023/07/26 07:42:54;;;;;;;15.18;8.52;;;28.40;99.90;;;;;;4934368;29;20529;-86
2023/07/26 07:45:21;;;;;;;14.88;7.90;;;28.50;99.90;;;;;;4946288;29;20062;-83
2023/07/26 07:47:48;;;;;;;20.98;9.38;;;28.50;99.10;;;;;;4944733;29;20059;-80
2023/07/26 07:50:15;;;;;;;14.10;7.00;;;28.60;98.00;;;;;;4933211;29;20052;-84
2023/07/26 07:52:44;;;;;;;14.88;7.40;;;28.70;98.20;;;;;;4937579;28;20047;-80
2023/07/26 07:55:12;;;;;;;15.15;8.15;;;28.80;97.70;;;;;;4944676;28;20139;-81
2023/07/26 07:57:42;;;;;;;16.58;8.10;;;28.80;98.90;;;;;;4968074;28;20472;-80
2023/07/26 08:00:11;;;;;;;18.98;9.73;;;28.70;99.10;;;;;;4959204;28;20047;-80
2023/07/26 08:02:39;;;;;;;15.30;8.38;;;28.80;99.50;;;;;;4926267;29;20114;-80
2023/07/26 08:05:07;;;;;;;19.45;8.55;;;28.80;97.80;;;;;;4959843;28;20146;-79
2023/07/26 08:07:35;;;;;;;16.60;8.80;;;28.90;98.40;;;;;;4949584;28;20055;-80
2023/07/26 08:10:03;;;;;;;12.40;7.05;;;28.90;97.90;;;;;;4969753;28;20106;-80
2023/07/26 08:12:35;;;;;;;13.20;6.90;;;29.10;96.50;;;;;;4932878;29;20054;-80
2023/07/26 08:15:05;;;;;;;16.92;8.27;;;29.20;95.50;;;;;;4941693;29;20047;-79
2023/07/26 08:17:32;;;;;;;20.80;8.95;;;29.40;96.00;;;;;;4950256;28;20046;-79
2023/07/26 08:20:19;;;;;;;14.50;7.78;;;29.40;95.90;;;;;;4934759;29;20051;-79
2023/07/26 08:22:49;;;;;;;16.35;6.95;;;29.30;96.30;;;;;;4957285;28;20056;-80
2023/07/26 08:25:17;;;;;;;14.68;6.25;;;29.40;95.00;;;;;;4941394;29;20069;-81
2023/07/26 08:27:45;;;;;;;14.70;7.35;;;29.60;94.60;;;;;;4954487;29;20047;-79
2023/07/26 08:30:14;;;;;;;16.58;6.00;;;29.70;95.90;;;;;;4931674;29;20204;-81
2023/07/26 08:32:57;;;;;;;22.38;6.53;;;30.00;92.60;;;;;;4939000;29;20060;-81
2023/07/26 08:35:48;;;;;;;18.15;5.28;;;30.30;91.00;;;;;;4945357;28;20102;-79
2023/07/26 08:38:18;;;;;;;12.02;4.93;;;30.70;84.20;;;;;;4956539;29;20419;-79
2023/07/26 08:40:47;;;;;;;11.53;4.67;;;31.00;76.30;;;;;;4950341;29;20055;-80
2023/07/26 08:43:19;;;;;;;13.05;4.63;;;31.10;76.70;;;;;;4931613;29;20079;-79
2023/07/26 08:45:47;;;;;;;15.55;4.65;;;31.30;75.40;;;;;;4940417;28;21361;-79
2023/07/26 08:48:15;;;;;;;13.88;4.75;;;31.40;73.10;;;;;;4957171;29;20051;-79
2023/07/26 08:50:42;;;;;;;11.25;4.40;;;31.30;72.80;;;;;;4957181;28;20051;-81
2023/07/26 08:53:10;;;;;;;10.23;4.25;;;31.60;71.60;;;;;;4958788;28;20078;-83
2023/07/26 08:55:37;;;;;;;13.40;4.40;;;31.60;70.80;;;;;;4957154;29;20051;-78
2023/07/26 08:58:05;;;;;;;10.18;4.05;;;31.70;70.20;;;;;;4939117;28;20061;-79
2023/07/26 09:00:34;;;;;;;12.65;4.55;;;31.40;70.90;;;;;;4963763;28;20106;-81
2023/07/26 09:03:07;;;;;;;10.55;4.35;;;31.70;69.30;;;;;;4925863;28;20493;-78
2023/07/26 09:05:34;;;;;;;12.65;4.35;;;31.80;70.30;;;;;;4950394;28;20084;-79
2023/07/26 09:08:02;;;;;;;8.90;4.13;;;31.70;69.90;;;;;;4921026;28;20124;-79
2023/07/26 09:10:31;;;;;;;14.07;4.22;;;31.90;70.70;;;;;;4937661;29;20067;-79
2023/07/26 09:13:13;;;;;;;10.18;4.22;;;32.20;67.90;;;;;;4954678;28;20051;-77
2023/07/26 09:15:43;;;;;;;11.82;4.05;;;31.90;68.50;;;;;;4909291;29;20051;-79
2023/07/26 09:18:12;;;;;;;10.88;3.95;;;31.90;68.80;;;;;;4941125;29;20487;-79
2023/07/26 09:20:39;;;;;;;15.25;5.47;;;31.90;68.30;;;;;;4957238;28;20055;-78
2023/07/26 09:23:13;;;;;;;9.23;4.50;;;32.10;69.20;;;;;;4935566;28;20062;-79
2023/07/26 09:25:45;;;;;;;16.30;5.20;;;32.50;67.70;;;;;;4923055;29;20595;-77
2023/07/26 09:28:15;;;;;;;15.70;4.32;;;32.30;67.60;;;;;;4955653;28;20126;-78
2023/07/26 09:30:45;;;;;;;15.02;5.03;;;32.40;68.90;;;;;;4942011;28;20051;-79
2023/07/26 09:33:16;;;;;;;15.02;4.90;;;32.70;67.70;;;;;;4972028;28;20110;-81
2023/07/26 09:35:48;;;;;;;14.02;4.75;;;32.50;67.20;;;;;;4956319;28;20079;-78
2023/07/26 09:38:17;;;;;;;14.80;5.13;;;32.60;66.00;;;;;;4938075;28;20050;-78
2023/07/26 09:40:45;;;;;;;11.27;4.10;;;32.60;66.40;;;;;;4953569;28;20415;-80
2023/07/26 09:43:32;;;;;;;11.32;4.53;;;32.70;65.80;;;;;;4956927;28;20051;-78
2023/07/26 09:46:05;;;;;;;19.25;5.07;;;32.80;65.30;;;;;;4939072;29;20066;-79
2023/07/26 09:49:02;;;;;;;15.90;5.03;;;32.80;65.10;;;;;;4956040;28;20051;-80
2023/07/26 09:51:31;;;;;;;18.00;5.45;;;32.90;66.40;;;;;;4945277;29;20053;-82
2023/07/26 09:54:00;;;;;;;17.20;4.05;;;33.30;65.10;;;;;;4946590;29;20232;-79
2023/07/26 09:56:48;;;;;;;15.50;3.60;;;33.00;63.80;;;;;;4960704;28;20047;-80
2023/07/26 09:59:15;;;;;;;12.15;4.10;;;33.20;64.80;;;;;;4949817;28;20410;-79
2023/07/26 10:01:45;;;;;;;13.02;3.85;;;33.20;64.10;;;;;;4942212;28;20055;-80
2023/07/26 10:04:16;;;;;;;10.57;4.25;;;33.10;64.20;;;;;;4943743;29;20051;-80
2023/07/26 10:06:48;;;;;;;13.43;4.70;;;33.20;63.90;;;;;;4969282;28;20114;-82
2023/07/26 10:09:16;;;;;;;11.77;4.35;;;33.30;64.10;;;;;;4958245;28;20058;-80
2023/07/26 10:11:45;;;;;;;17.02;4.60;;;33.50;63.80;;;;;;4960145;28;20440;-80
2023/07/26 10:14:14;;;;;;;11.37;4.67;;;33.50;64.00;;;;;;4940936;29;20433;-79
2023/07/26 10:16:41;;;;;;;11.25;3.95;;;33.40;64.70;;;;;;4929866;29;20285;-79
2023/07/26 10:19:11;;;;;;;14.85;4.93;;;33.40;63.60;;;;;;4964602;28;20107;-78
2023/07/26 10:21:42;;;;;;;14.07;4.05;;;33.50;63.40;;;;;;4946914;29;20496;-80
2023/07/26 10:24:14;;;;;;;12.73;5.20;;;33.60;62.00;;;;;;4947669;29;20047;-81
2023/07/26 10:26:43;;;;;;;13.07;4.40;;;33.50;61.80;;;;;;4939362;29;20062;-80
2023/07/26 10:29:13;;;;;;;13.90;4.22;;;33.60;62.10;;;;;;4964234;28;20055;-79
2023/07/26 10:31:40;;;;;;;12.82;4.07;;;33.50;61.80;;;;;;4955140;29;20058;-81
2023/07/26 10:34:10;;;;;;;12.93;3.92;;;33.70;61.90;;;;;;4949703;28;20053;-78
2023/07/26 10:36:39;;;;;;;15.40;4.13;;;33.70;60.60;;;;;;4963076;29;20043;-84
2023/07/26 10:39:11;;;;;;;10.15;4.40;;;33.60;61.70;;;;;;4970429;28;20050;-81
2023/07/26 10:41:50;;;;;;;11.48;3.95;;;33.70;61.10;;;;;;4948956;28;20052;-79
2023/07/26 10:44:18;;;;;;;15.13;4.07;;;33.70;61.00;;;;;;4957983;28;20145;-79
2023/07/26 10:47:01;;;;;;;13.38;4.40;;;33.70;59.80;;;;;;4941380;28;20062;-82
2023/07/26 10:49:33;;;;;;;8.50;3.95;;;33.80;60.00;;;;;;4961601;28;20123;-79
2023/07/26 10:52:04;;;;;;;12.32;3.80;;;34.00;59.60;;;;;;4966024;28;20053;-79
2023/07/26 10:54:37;;;;;;;15.52;4.50;;;33.90;59.00;;;;;;4950369;28;20138;-81
2023/07/26 10:57:17;;;;;;;13.38;4.55;;;34.10;59.10;;;;;;4946122;29;20043;-81
2023/07/26 11:00:04;;;;;;;13.85;3.78;;;34.10;57.50;;;;;;4936302;29;20130;-79
2023/07/26 11:02:45;;;;;;;15.60;4.10;;;34.30;57.30;;;;;;4959969;28;20058;-82
2023/07/26 11:05:24;;;;;;;10.73;3.47;;;34.10;56.60;;;;;;4930479;28;20110;-80
2023/07/26 11:08:13;;;;;;;9.05;3.85;;;34.30;56.20;;;;;;4941189;29;20054;-81
2023/07/26 11:10:51;;;;;;;7.80;3.47;;;34.50;57.20;;;;;;4965532;29;20062;-81
2023/07/26 11:13:27;;;;;;;10.50;3.53;;;34.50;56.40;;;;;;4943301;28;20043;-80
2023/07/26 11:16:01;;;;;;;12.57;4.15;;;34.60;55.70;;;;;;4925604;29;20447;-80
2023/07/26 11:18:43;;;;;;;12.50;3.88;;;34.60;55.70;;;;;;4950377;28;20123;-81
2023/07/26 11:21:15;;;;;;;11.50;3.50;;;34.50;54.70;;;;;;4964763;28;20051;-84
2023/07/26 11:23:44;;;;;;;9.95;3.67;;;34.60;54.00;;;;;;4935867;28;20055;-82
2023/07/26 11:26:12;;;;;;;10.45;3.58;;;34.60;53.70;;;;;;4940211;29;20070;-83
2023/07/26 11:28:47;;;;;;;8.63;3.28;;;34.60;56.00;;;;;;4902887;29;20058;-82
2023/07/26 11:31:19;;;;;;;12.52;4.95;;;34.90;54.40;;;;;;4930415;29;20051;-85
2023/07/26 11:34:18;;;;;;;9.52;3.78;;;34.90;54.00;;;;;;4939944;29;20043;-83
2023/07/26 11:37:15;;;;;;;10.20;3.27;;;34.80;54.80;;;;;;4947598;29;20549;-84
2023/07/26 11:39:43;;;;;;;13.80;4.07;;;34.80;54.00;;;;;;4926079;29;20123;-82
2023/07/26 11:42:16;;;;;;;8.60;3.33;;;34.90;54.70;;;;;;4959060;29;20134;-80
2023/07/26 11:45:06;;;;;;;13.43;3.15;;;34.90;54.40;;;;;;4942710;29;20075;-82
2023/07/26 11:47:36;;;;;;;11.18;3.42;;;34.80;53.10;;;;;;4943299;29;20051;-82
2023/07/26 11:50:04;;;;;;;9.27;3.17;;;34.40;52.40;;;;;;4941335;29;20063;-81
2023/07/26 11:52:32;;;;;;;9.20;3.72;;;34.40;52.60;;;;;;4928606;29;20047;-81
2023/07/26 11:55:04;;;;;;;9.35;3.30;;;34.50;52.60;;;;;;4927650;29;20138;-84
2023/07/26 11:57:32;;;;;;;11.88;3.55;;;34.60;52.60;;;;;;4961368;29;20054;-81
2023/07/26 12:00:24;;;;;;;8.07;3.90;;;34.70;53.60;;;;;;4953073;29;20077;-80
2023/07/26 12:02:51;;;;;;;12.82;3.97;;;34.70;52.90;;;;;;4938199;29;20062;-82
2023/07/26 12:05:21;;;;;;;9.25;3.08;;;34.70;52.10;;;;;;4957951;29;20130;-81
2023/07/26 12:07:49;;;;;;;9.15;3.22;;;34.80;52.60;;;;;;4955414;29;20058;-80
2023/07/26 12:10:29;;;;;;;11.35;3.47;;;35.00;51.10;;;;;;4941195;29;20832;-81
2023/07/26 12:12:58;;;;;;;10.23;2.92;;;35.20;51.40;;;;;;4939336;29;20055;-80
2023/07/26 12:15:27;;;;;;;10.02;3.30;;;35.20;51.30;;;;;;4941135;29;20174;-78
2023/07/26 12:17:55;;;;;;;9.25;3.08;;;35.40;51.40;;;;;;4953228;29;20049;-86
2023/07/26 12:20:24;;;;;;;9.85;3.00;;;35.30;49.90;;;;;;4958665;29;20051;-80
2023/07/26 12:23:08;;;;;;;10.88;3.50;;;35.00;50.40;;;;;;4954902;29;20420;-79
2023/07/26 12:25:38;;;;;;;7.63;3.55;;;35.20;50.50;;;;;;4932460;29;20460;-80
2023/07/26 12:28:06;;;;;;;13.90;3.53;;;35.50;50.90;;;;;;4952345;28;20043;-80
2023/07/26 12:30:34;;;;;;;9.88;2.88;;;35.40;50.50;;;;;;4954924;29;20056;-81
2023/07/26 12:33:11;;;;;;;7.00;3.13;;;35.50;50.30;;;;;;4938390;29;20110;-82
2023/07/26 12:35:44;;;;;;;13.88;3.20;;;35.40;49.90;;;;;;4942660;28;20086;-83
2023/07/26 12:38:13;;;;;;;7.03;2.92;;;35.60;50.00;;;;;;4938218;29;20057;-82
2023/07/26 12:40:40;;;;;;;11.60;3.15;;;35.30;48.40;;;;;;4943292;28;20053;-81
2023/07/26 12:43:28;;;;;;;8.48;3.38;;;35.00;48.80;;;;;;4924019;29;20102;-80
2023/07/26 12:45:57;;;;;;;9.35;3.50;;;35.00;48.00;;;;;;4953741;28;20396;-78
2023/07/26 12:48:26;;;;;;;5.50;2.70;;;35.00;48.00;;;;;;4938240;29;20071;-79
2023/07/26 12:50:56;;;;;;;8.80;3.03;;;35.00;47.00;;;;;;4956976;28;20051;-80
2023/07/26 12:53:24;;;;;;;9.25;3.10;;;35.20;47.40;;;;;;4948058;28;20062;-79